< < Back
Terminal Aerodrome Forecast


Current Version              Previous Versions:   1  2  3  4  5  6  7  8  9  

Terminal Aerodrome Forecast

305
FTUS42 KILM 291125
TAFFLO
TAF
KFLO 291125Z 2912/3012 36008KT 6SM BR BKN005
     FM291500 01008KT P6SM SCT045
     FM292300 VRB02KT P6SM SKC=

Latest METAR

978
SAUS70 KWBC 291800 RRJ
MTRFLO
METAR KFLO 291753Z 22004KT 10SM FEW046 28/17 A2996 RMK AO2 SLP141
T02830167 10289 20194 55009


USA.gov is the U.S. government's official web portal to all federal, state and local government web resources and services.